Calgary Springbank, Alberta

1:45 PM MDT on September 02, 2015 (GMT -0600)
Springbank | | Change Station
CLOSE
Current Station
Airport
Location: Calgary Springbank,
Elevation: 3937 ft
Nearby Weather Stations

Elev 3937 ft 51.10 °N, 114.37 °W | Updated 45 minutes ago

Partly Cloudy
Partly Cloudy
68 °F
Feels Like 68 °F
N
6
Wind Variable Wind from Variable

Today is forecast to be nearly the same temperature as yesterday.

Today
High -- | Low -- °F
--% Chance of Precip.
Yesterday
High -- | Low -- °F
Precip. -- in
6:52 AM 8:21 PM
Waning Gibbous, 78% visible
Pressure 29.60 in
Visibility 9.0 miles
Clouds Few 10000 ft
Dew Point 37 °F
Humidity 33%
Rainfall 0.00 in
Snow Depth Not available.
UV 7 out of 12
Pollen Not available.
Air Quality Not available.
Flu Activity Not available.
METAR CYBW 021900Z AUTO VRB05KT 9SM FEW100 20/03 A2959 RMK SLP022 DENSITY ALT 5700FT
Pressure 29.60 in
Visibility 9.0 miles
Clouds Few 10000 ft
Dew Point 37 °F
Humidity 33%
Rainfall 0.00 in
Snow Depth Not available.
UV 7 out of 12
Pollen Not available.
Air Quality Not available.
Flu Activity Not available.
METAR CYBW 021900Z AUTO VRB05KT 9SM FEW100 20/03 A2959 RMK SLP022 DENSITY ALT 5700FT

10-Day Weather Forecast

×

Almanac

Astronomy

Sep. 02, 2015 Rise Set
Actual Time
Civil Twilight
Nautical Twilight
Astronomical Twilight
Moon
Length of Visible Light
Length of Day
Tomorrow will be .
, % of the Moon is Illuminated

Today's Extremes

Country Highs Country Lows

Community

WunderPhotos

Upload Photos

1,851,801 photos uploaded!

WunderBlogs® & News

Nearby

Air Quality

  Air Quality AQ Index Pollutant
Not available.

Snow Depth

Station Depth Elevation

Earthquake Activity

City Distance Mag. Time & Date
Minimum magnitude displayed is 2.5.

Coastal Water Temperatures

Place Temperature

Stations

Nearby Weather Stations

Station Location Temp. Windchill Dew Point Humidity Wind Precip. Elev Updated Type